createdAt,value
2022-10-18T00:03:32.210Z,123
2022-10-18T00:23:32.689Z,123
2022-10-18T00:43:32.134Z,122
2022-10-18T01:03:32.658Z,124
2022-10-18T01:23:32.687Z,124
2022-10-18T01:43:32.712Z,124
2022-10-18T02:03:32.712Z,124
2022-10-18T02:23:32.726Z,126
2022-10-18T02:43:32.768Z,125
2022-10-18T03:03:32.773Z,121
2022-10-18T03:23:32.771Z,127
2022-10-18T03:43:32.803Z,127
2022-10-18T04:03:32.807Z,129
2022-10-18T04:23:35.028Z,129
2022-10-18T04:43:32.887Z,128
2022-10-18T05:03:32.868Z,131
2022-10-18T05:23:32.673Z,128
2022-10-18T05:43:32.411Z,127
2022-10-18T06:03:32.925Z,130
2022-10-18T06:23:32.732Z,132
2022-10-18T06:43:32.939Z,132
2022-10-18T07:03:32.954Z,130
2022-10-18T07:23:32.989Z,127
2022-10-18T07:43:32.981Z,131
2022-10-18T08:03:33.028Z,130
2022-10-18T08:23:32.855Z,130
2022-10-18T08:43:33.109Z,130
2022-10-18T09:03:33.157Z,127
2022-10-18T09:23:33.102Z,129
2022-10-18T09:43:33.100Z,128
2022-10-18T10:03:32.601Z,132
2022-10-18T10:23:33.142Z,136
2022-10-18T10:43:37.436Z,138
2022-10-18T11:03:33.044Z,134
2022-10-18T11:23:33.252Z,137
2022-10-18T11:43:50.452Z,138
2022-10-18T12:03:33.005Z,133
2022-10-18T12:23:33.229Z,137
2022-10-18T12:43:33.274Z,132
2022-10-18T13:03:33.260Z,133
2022-10-18T13:23:34.057Z,138
2022-10-18T13:43:33.290Z,135
2022-10-18T14:03:55.432Z,134
2022-10-18T14:23:32.826Z,130
2022-10-18T14:43:33.322Z,131
2022-10-18T15:03:33.372Z,131
2022-10-18T15:23:33.366Z,130
2022-10-18T15:43:33.386Z,131
2022-10-18T16:03:33.425Z,132
2022-10-18T16:23:33.427Z,132
2022-10-18T16:43:33.231Z,129
2022-10-18T17:03:33.463Z,130
2022-10-18T17:23:33.480Z,129
2022-10-18T17:43:33.541Z,131
2022-10-18T18:03:33.566Z,128
2022-10-18T18:23:33.549Z,133
2022-10-18T18:43:33.555Z,130
2022-10-18T19:03:33.168Z,131
2022-10-18T19:23:33.623Z,131
2022-10-18T19:43:33.626Z,131
2022-10-18T20:03:33.656Z,128
2022-10-18T20:23:33.671Z,128
2022-10-18T20:43:33.685Z,133
2022-10-18T21:03:33.748Z,127
2022-10-18T21:23:33.737Z,127
2022-10-18T21:43:33.748Z,129
2022-10-18T22:03:33.811Z,128
2022-10-18T22:23:33.795Z,127
2022-10-18T22:43:33.820Z,128
2022-10-18T23:03:33.869Z,131
2022-10-18T23:23:33.878Z,127
2022-10-18T23:43:33.923Z,130
